createdAt,value
2018-11-23T00:00:28.285Z,5.00
2018-11-23T00:02:57.187Z,5.00
2018-11-23T00:05:25.298Z,4.90
2018-11-23T00:07:54.065Z,4.90
2018-11-23T00:10:23.331Z,4.80
2018-11-23T00:12:52.316Z,4.90
2018-11-23T00:15:21.553Z,4.90
2018-11-23T00:17:49.944Z,4.80
2018-11-23T00:20:19.332Z,4.80
2018-11-23T00:22:47.477Z,4.70
2018-11-23T00:25:16.797Z,4.80
2018-11-23T00:27:44.941Z,4.80
2018-11-23T00:30:15.409Z,4.80
2018-11-23T00:32:43.884Z,4.80
2018-11-23T00:35:13.791Z,4.80
2018-11-23T00:37:42.101Z,4.80
2018-11-23T00:40:12.516Z,4.70
2018-11-23T00:42:41.294Z,4.80
2018-11-23T00:45:11.101Z,4.80
2018-11-23T00:50:14.330Z,4.80
2018-11-23T00:52:43.002Z,4.70
2018-11-23T00:55:12.797Z,4.80
2018-11-23T00:57:41.050Z,4.70
2018-11-23T01:00:15.049Z,4.60
2018-11-23T01:02:43.403Z,4.70
2018-11-23T01:05:12.976Z,4.70
2018-11-23T01:07:41.685Z,4.70
2018-11-23T01:10:11.424Z,4.70
2018-11-23T01:12:39.540Z,4.60
2018-11-23T01:15:08.052Z,4.60
2018-11-23T01:17:36.315Z,4.60
2018-11-23T01:20:04.981Z,4.60
2018-11-23T01:22:33.121Z,4.60
2018-11-23T01:25:01.267Z,4.60
2018-11-23T01:27:29.376Z,4.60
2018-11-23T01:29:57.516Z,4.60
2018-11-23T01:32:25.647Z,4.60
2018-11-23T01:34:54.714Z,4.60
2018-11-23T01:37:23.044Z,4.70
2018-11-23T01:39:51.227Z,4.60
2018-11-23T01:42:19.370Z,4.60
2018-11-23T01:44:49.747Z,4.60
2018-11-23T01:47:19.941Z,4.50
2018-11-23T01:49:48.078Z,4.50
2018-11-23T01:52:16.223Z,4.50
2018-11-23T01:54:44.361Z,4.40
2018-11-23T01:57:12.597Z,4.50
2018-11-23T01:59:40.701Z,4.50
2018-11-23T02:02:09.486Z,4.50
2018-11-23T02:04:37.697Z,4.50
2018-11-23T02:07:05.809Z,4.40
2018-11-23T02:09:34.509Z,4.40
2018-11-23T02:12:02.645Z,4.40
2018-11-23T02:14:31.131Z,4.40
2018-11-23T02:16:59.238Z,4.40
2018-11-23T02:19:27.360Z,4.40
2018-11-23T02:21:55.490Z,4.40
2018-11-23T02:24:23.607Z,4.30
2018-11-23T02:26:51.713Z,4.30
2018-11-23T02:29:19.850Z,4.30
2018-11-23T02:31:47.958Z,4.30
2018-11-23T02:34:16.112Z,4.20
2018-11-23T02:36:44.224Z,4.20
2018-11-23T02:39:12.338Z,4.30
2018-11-23T02:41:40.469Z,4.30
2018-11-23T02:44:08.592Z,4.20
2018-11-23T02:46:36.721Z,4.20
2018-11-23T02:49:05.230Z,4.20
2018-11-23T02:51:33.360Z,4.10
2018-11-23T02:54:01.481Z,4.10
2018-11-23T02:56:43.481Z,4.10
2018-11-23T02:59:12.011Z,4.10
2018-11-23T03:01:40.244Z,4.10
2018-11-23T03:04:09.229Z,4.10
2018-11-23T03:06:37.375Z,4.10
2018-11-23T03:09:07.893Z,4.10
2018-11-23T03:11:37.240Z,4.10
2018-11-23T03:14:05.724Z,4.10
2018-11-23T03:16:34.700Z,4.10
2018-11-23T03:19:03.325Z,4.10
2018-11-23T03:21:31.462Z,4.10
2018-11-23T03:23:59.577Z,4.10
2018-11-23T03:26:27.749Z,4.10
2018-11-23T03:28:55.893Z,4.10
2018-11-23T03:31:25.180Z,4.00
2018-11-23T03:33:53.869Z,4.00
2018-11-23T03:36:22.957Z,4.00
2018-11-23T03:38:51.472Z,4.00
2018-11-23T03:41:19.580Z,4.00
2018-11-23T03:43:47.740Z,4.00
2018-11-23T03:46:15.935Z,4.00
2018-11-23T03:48:44.034Z,4.00
2018-11-23T03:51:12.169Z,3.90
2018-11-23T03:53:40.277Z,3.90
2018-11-23T03:56:08.439Z,3.90
2018-11-23T03:58:36.583Z,3.90
2018-11-23T04:01:04.873Z,3.90
2018-11-23T04:03:32.994Z,3.90
2018-11-23T04:06:01.486Z,3.90
2018-11-23T04:08:29.602Z,3.90
2018-11-23T04:10:57.736Z,3.90
2018-11-23T04:13:25.863Z,3.90
2018-11-23T04:15:54.034Z,3.80
2018-11-23T04:18:22.153Z,3.80
2018-11-23T04:20:58.814Z,3.80
2018-11-23T04:23:26.956Z,3.80
2018-11-23T04:25:55.124Z,3.80
2018-11-23T04:28:24.068Z,3.80
2018-11-23T04:30:52.578Z,3.90
2018-11-23T04:33:20.704Z,3.90
2018-11-23T04:35:49.182Z,3.80
2018-11-23T04:38:17.304Z,3.80
2018-11-23T04:40:46.476Z,3.80
2018-11-23T04:43:14.580Z,3.80
2018-11-23T04:45:42.741Z,3.80
2018-11-23T04:48:10.927Z,3.80
2018-11-23T04:50:39.040Z,3.80
2018-11-23T04:53:07.176Z,3.80
2018-11-23T04:55:35.309Z,3.80
2018-11-23T04:58:03.463Z,3.80
2018-11-23T05:00:31.590Z,3.80
2018-11-23T05:02:59.755Z,3.80
2018-11-23T05:05:27.876Z,3.80
2018-11-23T05:07:56.000Z,3.70
2018-11-23T05:10:24.113Z,3.80
2018-11-23T05:12:52.256Z,3.70
2018-11-23T05:15:20.377Z,3.70
2018-11-23T05:17:48.587Z,3.70
2018-11-23T05:20:17.059Z,3.80
2018-11-23T05:22:45.528Z,3.80
2018-11-23T05:25:14.827Z,3.80
2018-11-23T05:27:42.950Z,3.80
2018-11-23T05:30:13.703Z,3.80
2018-11-23T05:32:41.836Z,3.80
2018-11-23T05:35:11.322Z,3.80
2018-11-23T05:37:39.447Z,3.80
2018-11-23T05:40:09.410Z,3.80
2018-11-23T05:42:37.785Z,3.80
2018-11-23T05:45:07.792Z,3.80
2018-11-23T05:47:36.177Z,3.80
2018-11-23T05:50:05.741Z,3.80
2018-11-23T05:52:34.822Z,3.70
2018-11-23T05:55:03.043Z,3.70
2018-11-23T05:57:31.243Z,3.70
2018-11-23T05:59:59.340Z,3.70
2018-11-23T06:02:27.448Z,3.70
2018-11-23T06:04:55.586Z,3.70
2018-11-23T06:07:24.142Z,3.80
2018-11-23T06:09:52.256Z,3.80
2018-11-23T06:12:20.391Z,3.80
2018-11-23T06:14:48.517Z,3.80
2018-11-23T06:17:16.636Z,3.80
2018-11-23T06:19:44.753Z,3.80
2018-11-23T06:22:12.888Z,3.80
2018-11-23T06:24:41.420Z,3.80
2018-11-23T06:27:09.538Z,3.70
2018-11-23T06:29:37.667Z,3.80
2018-11-23T06:32:16.081Z,3.70
2018-11-23T06:34:44.188Z,3.70
2018-11-23T06:37:12.322Z,3.70
2018-11-23T06:39:40.533Z,3.70
2018-11-23T06:42:08.653Z,3.70
2018-11-23T06:44:36.756Z,3.60
2018-11-23T06:47:04.908Z,3.60
2018-11-23T06:49:33.048Z,3.60
2018-11-23T06:52:01.166Z,3.60
2018-11-23T06:54:29.289Z,3.70
2018-11-23T06:56:57.402Z,3.70
2018-11-23T06:59:25.519Z,3.70
2018-11-23T07:01:53.917Z,3.70
2018-11-23T07:04:22.039Z,3.70
2018-11-23T07:06:50.457Z,3.70
2018-11-23T07:09:18.561Z,3.70
2018-11-23T07:11:46.666Z,3.70
2018-11-23T07:14:14.773Z,3.70
2018-11-23T07:16:42.957Z,3.80
2018-11-23T07:19:11.086Z,3.80
2018-11-23T07:21:39.212Z,3.80
2018-11-23T07:24:07.409Z,3.90
2018-11-23T07:26:35.553Z,3.90
2018-11-23T07:29:04.540Z,3.90
2018-11-23T07:31:32.767Z,3.90
2018-11-23T07:34:01.003Z,3.90
2018-11-23T07:36:29.182Z,3.90
2018-11-23T07:38:57.362Z,4.00
2018-11-23T07:41:36.808Z,4.00
2018-11-23T07:44:04.981Z,4.10
2018-11-23T07:46:33.308Z,4.10
2018-11-23T07:49:01.517Z,4.20
2018-11-23T07:51:29.661Z,4.20
2018-11-23T07:53:57.878Z,4.30
2018-11-23T07:56:26.031Z,4.30
2018-11-23T07:58:54.176Z,4.30
2018-11-23T08:01:22.293Z,4.40
2018-11-23T08:03:50.461Z,4.50
2018-11-23T08:06:18.647Z,4.50
2018-11-23T08:08:46.795Z,4.60
2018-11-23T08:11:14.912Z,4.60
2018-11-23T08:13:43.050Z,4.80
2018-11-23T08:16:11.169Z,4.90
2018-11-23T08:18:39.280Z,4.90
2018-11-23T08:21:07.390Z,5.10
2018-11-23T08:23:35.541Z,5.10
2018-11-23T08:26:03.705Z,5.20
2018-11-23T08:28:31.885Z,5.40
2018-11-23T08:31:00.058Z,6.20
2018-11-23T08:33:28.177Z,7.80
2018-11-23T08:35:56.284Z,9.40
2018-11-23T08:38:24.504Z,11.00
2018-11-23T08:40:52.603Z,12.30
2018-11-23T08:43:20.744Z,13.40
2018-11-23T08:45:49.009Z,14.40
2018-11-23T08:48:17.117Z,15.20
2018-11-23T08:50:45.292Z,15.80
2018-11-23T08:53:13.468Z,16.20
2018-11-23T08:55:41.594Z,16.30
2018-11-23T08:58:09.702Z,16.20
2018-11-23T09:00:37.830Z,15.80
2018-11-23T09:03:06.296Z,15.60
2018-11-23T09:05:35.333Z,15.40
2018-11-23T09:08:03.458Z,15.10
2018-11-23T09:10:31.594Z,14.60
2018-11-23T09:13:02.299Z,14.20
2018-11-23T09:15:30.425Z,14.00
2018-11-23T09:17:58.559Z,13.90
2018-11-23T09:20:26.996Z,14.10
2018-11-23T09:22:55.128Z,14.60
2018-11-23T09:25:23.796Z,14.90
2018-11-23T09:27:51.950Z,14.90
2018-11-23T09:30:24.444Z,15.00
2018-11-23T09:32:53.328Z,14.90
2018-11-23T09:35:21.602Z,14.90
2018-11-23T09:37:50.097Z,14.90
2018-11-23T09:40:22.628Z,14.80
2018-11-23T09:42:50.873Z,14.80
2018-11-23T09:45:20.360Z,14.70
2018-11-23T09:47:49.464Z,14.90
2018-11-23T09:50:18.949Z,15.40
2018-11-23T09:52:48.155Z,16.10
2018-11-23T09:55:16.436Z,16.90
2018-11-23T09:57:44.566Z,17.60
2018-11-23T10:00:16.029Z,18.30
2018-11-23T10:02:44.756Z,19.00
2018-11-23T10:05:13.609Z,19.40
2018-11-23T10:07:42.755Z,19.60
2018-11-23T10:10:11.912Z,19.30
2018-11-23T10:12:40.224Z,19.20
2018-11-23T10:15:09.313Z,19.80
2018-11-23T10:17:37.475Z,20.40
2018-11-23T10:20:08.653Z,20.70
2018-11-23T10:22:36.916Z,20.80
2018-11-23T10:25:06.249Z,21.10
2018-11-23T10:27:34.373Z,21.80
2018-11-23T10:30:02.549Z,22.80
2018-11-23T10:32:30.669Z,23.80
2018-11-23T10:34:58.795Z,24.40
2018-11-23T10:37:26.937Z,24.80
2018-11-23T10:42:23.005Z,25.50
2018-11-23T10:44:51.116Z,25.40
2018-11-23T10:47:19.239Z,25.40
2018-11-23T10:49:47.364Z,25.60
2018-11-23T10:52:15.487Z,25.60
2018-11-23T10:54:43.621Z,25.60
2018-11-23T10:57:11.753Z,25.60
2018-11-23T10:59:39.953Z,25.70
2018-11-23T11:02:13.342Z,26.00
2018-11-23T11:04:47.104Z,26.10
2018-11-23T11:07:15.282Z,26.20
2018-11-23T11:09:43.424Z,26.10
2018-11-23T11:12:11.565Z,26.00
2018-11-23T11:14:39.961Z,26.10
2018-11-23T11:17:08.417Z,26.50
2018-11-23T11:19:37.262Z,26.70
2018-11-23T11:22:05.705Z,26.30
2018-11-23T11:24:33.853Z,26.30
2018-11-23T11:27:01.949Z,26.30
2018-11-23T11:29:30.094Z,26.30
2018-11-23T11:31:58.240Z,26.00
2018-11-23T11:34:26.703Z,26.00
2018-11-23T11:36:54.856Z,25.90
2018-11-23T11:39:22.961Z,25.70
2018-11-23T11:41:51.113Z,25.80
2018-11-23T11:44:19.669Z,25.50
2018-11-23T11:46:48.114Z,25.40
2018-11-23T11:49:16.225Z,25.10
2018-11-23T11:51:44.337Z,24.70
2018-11-23T11:54:12.460Z,24.40
2018-11-23T11:56:41.504Z,24.50
2018-11-23T11:59:09.644Z,24.80
2018-11-23T12:01:37.768Z,24.80
2018-11-23T12:04:05.997Z,24.60
2018-11-23T12:06:34.429Z,24.40
2018-11-23T12:09:02.597Z,24.20
2018-11-23T12:11:31.496Z,24.20
2018-11-23T12:14:00.103Z,24.30
2018-11-23T12:16:28.577Z,24.40
2018-11-23T12:18:56.781Z,24.50
2018-11-23T12:21:24.904Z,24.40
2018-11-23T12:23:53.028Z,24.60
2018-11-23T12:26:21.265Z,24.20
2018-11-23T12:28:49.472Z,23.80
2018-11-23T12:31:17.811Z,23.70
2018-11-23T12:33:46.498Z,24.00
2018-11-23T12:36:14.701Z,24.30
2018-11-23T12:38:43.338Z,24.40
2018-11-23T12:41:11.888Z,24.90
2018-11-23T12:43:40.426Z,24.90
2018-11-23T12:46:09.501Z,24.80
2018-11-23T12:48:38.052Z,24.90
2018-11-23T12:51:07.385Z,24.60
2018-11-23T12:53:35.906Z,24.50
2018-11-23T12:56:04.189Z,24.50
2018-11-23T12:58:33.192Z,24.20
2018-11-23T13:01:01.395Z,24.00
2018-11-23T13:03:30.016Z,24.10
2018-11-23T13:05:58.161Z,24.20
2018-11-23T13:08:26.497Z,24.10
2018-11-23T13:10:54.608Z,23.90
2018-11-23T13:13:22.745Z,24.00
2018-11-23T13:15:50.861Z,24.10
2018-11-23T13:18:19.009Z,24.10
2018-11-23T13:20:47.441Z,24.20
2018-11-23T13:23:15.615Z,24.20
2018-11-23T13:25:43.740Z,24.40
2018-11-23T13:28:12.274Z,24.20
2018-11-23T13:30:41.044Z,24.00
2018-11-23T13:33:09.159Z,24.00
2018-11-23T13:35:37.287Z,24.10
2018-11-23T13:38:05.444Z,23.80
2018-11-23T13:40:33.553Z,23.90
2018-11-23T13:43:01.990Z,23.70
2018-11-23T13:45:31.637Z,23.60
2018-11-23T13:47:59.765Z,23.40
2018-11-23T13:50:28.348Z,23.10
2018-11-23T13:52:58.075Z,22.90
2018-11-23T13:55:26.229Z,22.80
2018-11-23T13:57:54.656Z,22.60
2018-11-23T14:00:24.127Z,22.50
2018-11-23T14:02:52.288Z,22.30
2018-11-23T14:05:21.809Z,22.20
2018-11-23T14:07:51.303Z,22.10
2018-11-23T14:10:20.816Z,21.80
2018-11-23T14:12:49.092Z,21.10
2018-11-23T14:15:23.616Z,20.20
2018-11-23T14:17:52.707Z,19.40
2018-11-23T14:20:21.694Z,18.60
2018-11-23T14:22:49.832Z,18.00
2018-11-23T14:25:19.478Z,17.50
2018-11-23T14:27:48.179Z,17.00
2018-11-23T14:30:19.612Z,16.60
2018-11-23T14:32:47.907Z,16.40
2018-11-23T14:35:18.333Z,16.30
2018-11-23T14:37:47.217Z,16.10
2018-11-23T14:40:15.694Z,15.80
2018-11-23T14:42:44.790Z,15.70
2018-11-23T14:45:22.091Z,15.60
2018-11-23T14:47:50.980Z,15.40
2018-11-23T14:50:22.642Z,15.20
2018-11-23T14:52:51.761Z,15.00
2018-11-23T14:55:20.101Z,14.90
2018-11-23T14:57:48.746Z,14.70
2018-11-23T15:00:20.254Z,14.80
2018-11-23T15:02:49.660Z,14.70
2018-11-23T15:05:18.329Z,14.60
2018-11-23T15:07:46.581Z,14.50
2018-11-23T15:10:16.099Z,14.40
2018-11-23T15:12:44.862Z,14.30
2018-11-23T15:15:14.817Z,14.20
2018-11-23T15:17:44.136Z,14.20
2018-11-23T15:20:14.953Z,14.00
2018-11-23T15:22:43.540Z,13.90
2018-11-23T15:25:11.669Z,13.80
2018-11-23T15:27:41.025Z,12.00
2018-11-23T15:30:15.429Z,13.60
2018-11-23T15:32:44.082Z,13.50
2018-11-23T15:35:12.507Z,13.50
2018-11-23T15:37:40.644Z,13.30
2018-11-23T15:40:13.900Z,13.30
2018-11-23T15:42:42.034Z,13.30
2018-11-23T15:45:16.320Z,13.20
2018-11-23T15:47:44.444Z,13.10
2018-11-23T15:50:15.013Z,13.10
2018-11-23T15:52:43.553Z,13.00
2018-11-23T15:55:15.307Z,12.80
2018-11-23T15:57:44.214Z,12.70
2018-11-23T16:00:15.582Z,12.70
2018-11-23T16:02:44.601Z,12.60
2018-11-23T16:05:13.162Z,12.50
2018-11-23T16:07:41.320Z,12.30
2018-11-23T16:10:14.107Z,12.30
2018-11-23T16:12:42.470Z,12.20
2018-11-23T16:15:10.839Z,12.20
2018-11-23T16:17:39.312Z,12.10
2018-11-23T16:20:13.756Z,12.10
2018-11-23T16:22:42.811Z,11.90
2018-11-23T16:25:11.989Z,11.90
2018-11-23T16:27:40.826Z,11.80
2018-11-23T16:30:15.160Z,11.80
2018-11-23T16:32:44.450Z,11.80
2018-11-23T16:35:13.149Z,11.60
2018-11-23T16:37:41.316Z,11.60
2018-11-23T16:40:11.436Z,11.50
2018-11-23T16:42:40.028Z,11.50
2018-11-23T16:45:19.893Z,11.50
2018-11-23T16:47:48.449Z,11.40
2018-11-23T16:50:16.625Z,11.30
2018-11-23T16:52:45.924Z,11.20
2018-11-23T16:55:15.129Z,11.20
2018-11-23T16:57:44.369Z,11.10
2018-11-23T17:00:15.818Z,11.00
2018-11-23T17:02:43.966Z,11.00
2018-11-23T17:05:13.095Z,10.90
2018-11-23T17:07:41.266Z,10.80
2018-11-23T17:10:11.120Z,10.70
2018-11-23T17:12:39.940Z,10.70
2018-11-23T17:15:09.746Z,10.60
2018-11-23T17:17:38.018Z,10.50
2018-11-23T17:20:07.795Z,10.40
2018-11-23T17:22:36.576Z,10.30
2018-11-23T17:25:05.789Z,10.40
2018-11-23T17:27:33.936Z,10.20
2018-11-23T17:30:02.076Z,10.20
2018-11-23T17:32:30.237Z,10.10
2018-11-23T17:34:58.419Z,10.00
2018-11-23T17:37:26.562Z,10.00
2018-11-23T17:39:54.681Z,10.00
2018-11-23T17:42:23.244Z,10.00
2018-11-23T17:44:51.405Z,9.90
2018-11-23T17:47:19.547Z,9.70
2018-11-23T17:49:47.639Z,9.70
2018-11-23T17:52:15.809Z,9.70
2018-11-23T17:54:44.150Z,9.70
2018-11-23T17:57:12.296Z,9.70
2018-11-23T17:59:49.736Z,9.70
2018-11-23T18:02:19.797Z,9.60
2018-11-23T18:04:48.384Z,9.70
2018-11-23T18:07:16.487Z,9.60
2018-11-23T18:09:44.836Z,9.50
2018-11-23T18:12:13.037Z,9.50
2018-11-23T18:14:41.158Z,9.50
2018-11-23T18:17:09.341Z,9.40
2018-11-23T18:19:37.492Z,9.30
2018-11-23T18:22:06.084Z,9.30
2018-11-23T18:24:34.181Z,9.30
2018-11-23T18:27:02.322Z,9.30
2018-11-23T18:29:30.450Z,9.20
2018-11-23T18:31:58.572Z,9.20
2018-11-23T18:34:26.742Z,9.20
2018-11-23T18:36:54.929Z,9.10
2018-11-23T18:39:23.108Z,9.00
2018-11-23T18:41:51.263Z,9.10
2018-11-23T18:44:19.406Z,9.00
2018-11-23T18:46:47.525Z,9.00
2018-11-23T18:49:15.680Z,8.90
2018-11-23T18:51:43.779Z,8.90
2018-11-23T18:54:11.930Z,8.90
2018-11-23T18:56:40.044Z,8.90
2018-11-23T18:59:08.161Z,8.80
2018-11-23T19:01:36.742Z,8.70
2018-11-23T19:04:04.934Z,8.70
2018-11-23T19:06:33.090Z,8.60
2018-11-23T19:09:01.218Z,8.60
2018-11-23T19:11:29.362Z,8.50
2018-11-23T19:13:57.508Z,8.50
2018-11-23T19:16:25.636Z,8.50
2018-11-23T19:18:53.795Z,8.50
2018-11-23T19:21:21.909Z,8.50
2018-11-23T19:23:50.036Z,8.50
2018-11-23T19:26:18.149Z,8.40
2018-11-23T19:28:46.281Z,8.30
2018-11-23T19:31:14.451Z,8.40
2018-11-23T19:33:42.564Z,8.40
2018-11-23T19:36:10.689Z,8.30
2018-11-23T19:38:38.826Z,8.40
2018-11-23T19:41:06.944Z,8.30
2018-11-23T19:43:35.091Z,8.30
2018-11-23T19:46:03.227Z,8.20
2018-11-23T19:48:31.359Z,8.20
2018-11-23T19:50:59.469Z,8.20
2018-11-23T19:53:27.602Z,8.20
2018-11-23T19:55:55.716Z,8.20
2018-11-23T19:58:24.121Z,8.20
2018-11-23T20:00:52.310Z,8.20
2018-11-23T20:03:20.412Z,8.30
2018-11-23T20:05:48.553Z,8.30
2018-11-23T20:08:16.679Z,8.20
2018-11-23T20:10:44.882Z,8.20
2018-11-23T20:13:13.009Z,8.20
2018-11-23T20:15:41.181Z,8.20
2018-11-23T20:18:09.296Z,8.10
2018-11-23T20:20:37.433Z,8.00
2018-11-23T20:23:05.618Z,8.00
2018-11-23T20:25:33.758Z,7.90
2018-11-23T20:28:01.909Z,7.90
2018-11-23T20:30:30.056Z,7.80
2018-11-23T20:32:58.183Z,7.90
2018-11-23T20:35:26.338Z,7.80
2018-11-23T20:37:54.471Z,7.80
2018-11-23T20:40:23.265Z,7.70
2018-11-23T20:42:51.393Z,7.70
2018-11-23T20:45:19.547Z,7.70
2018-11-23T20:47:47.725Z,7.60
2018-11-23T20:50:16.661Z,7.50
2018-11-23T20:52:44.892Z,7.50
2018-11-23T20:55:15.147Z,7.40
2018-11-23T20:57:43.317Z,7.30
2018-11-23T21:00:15.150Z,7.30
2018-11-23T21:02:43.705Z,7.30
2018-11-23T21:05:12.873Z,7.30
2018-11-23T21:07:41.423Z,7.30
2018-11-23T21:10:20.229Z,7.20
2018-11-23T21:12:44.532Z,7.20
2018-11-23T21:15:30.920Z,7.20
2018-11-23T21:18:01.561Z,7.20
2018-11-23T21:20:28.752Z,7.10
2018-11-23T21:22:56.864Z,7.20
2018-11-23T21:25:31.691Z,7.20
2018-11-23T21:27:59.863Z,7.20
2018-11-23T21:30:27.983Z,7.10
2018-11-23T21:32:56.597Z,7.10
2018-11-23T21:35:25.206Z,7.10
2018-11-23T21:37:53.353Z,7.20
2018-11-23T21:40:21.450Z,7.10
2018-11-23T21:42:49.867Z,7.10
2018-11-23T21:45:19.300Z,7.10
2018-11-23T21:47:47.439Z,7.10
2018-11-23T21:50:16.482Z,7.10
2018-11-23T21:52:44.658Z,7.10
2018-11-23T21:55:27.498Z,7.10
2018-11-23T21:57:56.344Z,7.00
2018-11-23T22:00:24.437Z,6.80
2018-11-23T22:02:52.596Z,6.90
2018-11-23T22:05:20.740Z,6.90
2018-11-23T22:07:48.891Z,6.90
2018-11-23T22:10:18.869Z,6.90
2018-11-23T22:12:46.977Z,6.90
2018-11-23T22:15:20.208Z,6.90
2018-11-23T22:17:48.822Z,6.80
2018-11-23T22:20:17.898Z,6.80
2018-11-23T22:22:46.021Z,6.70
2018-11-23T22:25:15.187Z,6.70
2018-11-23T22:27:43.445Z,6.70
2018-11-23T22:30:16.848Z,6.60
2018-11-23T22:32:44.964Z,6.60
2018-11-23T22:35:13.515Z,6.60
2018-11-23T22:37:41.662Z,6.60
2018-11-23T22:40:13.834Z,6.50
2018-11-23T22:42:43.269Z,6.40
2018-11-23T22:45:12.229Z,6.40
2018-11-23T22:47:40.375Z,6.40
2018-11-23T22:50:09.949Z,6.40
2018-11-23T22:52:38.050Z,6.40
2018-11-23T22:55:08.015Z,6.40
2018-11-23T22:57:36.129Z,6.30
2018-11-23T23:00:09.686Z,6.40
2018-11-23T23:02:37.777Z,6.30
2018-11-23T23:05:06.524Z,6.30
2018-11-23T23:07:34.629Z,6.30
2018-11-23T23:10:02.781Z,6.20
2018-11-23T23:12:30.888Z,6.20
2018-11-23T23:14:59.033Z,6.20
2018-11-23T23:17:27.128Z,6.20
2018-11-23T23:19:55.257Z,6.20
2018-11-23T23:22:23.367Z,6.20
2018-11-23T23:24:51.481Z,6.20
2018-11-23T23:27:19.613Z,6.20
2018-11-23T23:29:47.742Z,6.30
2018-11-23T23:32:15.856Z,6.30
2018-11-23T23:34:44.222Z,6.30
2018-11-23T23:37:12.372Z,6.30
2018-11-23T23:39:40.498Z,6.30
2018-11-23T23:42:08.633Z,6.40
2018-11-23T23:44:37.454Z,6.40
2018-11-23T23:47:05.591Z,6.40
2018-11-23T23:49:33.713Z,6.40
2018-11-23T23:52:01.849Z,6.40
2018-11-23T23:54:29.991Z,6.30
2018-11-23T23:56:58.121Z,6.30
2018-11-23T23:59:26.233Z,6.20
